sensor_id;sensor_type;location;lat;lon;timestamp;pressure;altitude;pressure_sealevel;temperature;humidity
17635;BME280;8936;49.010;12.120;2023-06-14T00:00:52;97464.56;;;22.84;44.45
17635;BME280;8936;49.010;12.120;2023-06-14T00:03:21;97465.34;;;23.19;43.82
17635;BME280;8936;49.010;12.120;2023-06-14T00:05:49;97466.31;;;23.42;43.69
17635;BME280;8936;49.010;12.120;2023-06-14T00:08:16;97461.22;;;23.60;43.30
17635;BME280;8936;49.010;12.120;2023-06-14T00:10:43;97459.78;;;23.66;43.41
17635;BME280;8936;49.010;12.120;2023-06-14T00:13:11;97456.47;;;23.22;44.06
17635;BME280;8936;49.010;12.120;2023-06-14T00:15:38;97459.63;;;23.59;43.59
17635;BME280;8936;49.010;12.120;2023-06-14T00:18:05;97460.28;;;23.72;43.61
17635;BME280;8936;49.010;12.120;2023-06-14T00:20:32;97467.16;;;23.65;43.78
17635;BME280;8936;49.010;12.120;2023-06-14T00:22:59;97465.44;;;23.57;43.92
17635;BME280;8936;49.010;12.120;2023-06-14T00:25:25;97463.47;;;23.39;43.94
17635;BME280;8936;49.010;12.120;2023-06-14T00:27:52;97464.06;;;23.13;44.88
17635;BME280;8936;49.010;12.120;2023-06-14T00:30:19;97466.81;;;22.82;45.70
17635;BME280;8936;49.010;12.120;2023-06-14T00:32:46;97455.06;;;22.62;45.70
17635;BME280;8936;49.010;12.120;2023-06-14T00:35:13;97452.97;;;22.55;46.03
17635;BME280;8936;49.010;12.120;2023-06-14T00:37:39;97459.38;;;22.79;45.62
17635;BME280;8936;49.010;12.120;2023-06-14T00:40:06;97461.28;;;22.63;45.92
17635;BME280;8936;49.010;12.120;2023-06-14T00:42:33;97461.22;;;22.59;46.01
17635;BME280;8936;49.010;12.120;2023-06-14T00:44:59;97457.00;;;22.93;45.72
17635;BME280;8936;49.010;12.120;2023-06-14T00:47:27;97463.34;;;23.16;45.37
17635;BME280;8936;49.010;12.120;2023-06-14T00:49:53;97452.69;;;23.27;45.44
17635;BME280;8936;49.010;12.120;2023-06-14T00:52:22;97464.53;;;23.34;45.14
17635;BME280;8936;49.010;12.120;2023-06-14T00:54:49;97457.66;;;23.40;45.09
17635;BME280;8936;49.010;12.120;2023-06-14T00:57:16;97453.69;;;23.38;45.28
17635;BME280;8936;49.010;12.120;2023-06-14T00:59:43;97462.09;;;23.29;45.29
17635;BME280;8936;49.010;12.120;2023-06-14T01:02:10;97463.34;;;23.16;45.46
17635;BME280;8936;49.010;12.120;2023-06-14T01:04:37;97458.72;;;23.01;45.81
17635;BME280;8936;49.010;12.120;2023-06-14T01:07:07;97450.97;;;23.03;45.70
17635;BME280;8936;49.010;12.120;2023-06-14T01:09:46;97459.91;;;23.19;45.72
17635;BME280;8936;49.010;12.120;2023-06-14T01:12:15;97454.16;;;23.24;45.44
17635;BME280;8936;49.010;12.120;2023-06-14T01:14:43;97455.06;;;23.28;45.49
17635;BME280;8936;49.010;12.120;2023-06-14T01:17:10;97457.78;;;23.28;45.42
17635;BME280;8936;49.010;12.120;2023-06-14T01:19:42;97457.34;;;23.26;45.47
17635;BME280;8936;49.010;12.120;2023-06-14T01:22:09;97460.88;;;23.27;45.66
17635;BME280;8936;49.010;12.120;2023-06-14T01:24:37;97453.41;;;23.24;45.70
17635;BME280;8936;49.010;12.120;2023-06-14T01:27:04;97452.16;;;23.21;45.72
17635;BME280;8936;49.010;12.120;2023-06-14T01:29:32;97453.41;;;23.24;45.62
17635;BME280;8936;49.010;12.120;2023-06-14T01:32:01;97447.16;;;23.23;45.57
17635;BME280;8936;49.010;12.120;2023-06-14T01:34:28;97454.88;;;23.21;45.63
17635;BME280;8936;49.010;12.120;2023-06-14T01:36:54;97462.00;;;23.26;45.47
17635;BME280;8936;49.010;12.120;2023-06-14T01:39:21;97451.03;;;23.22;45.70
17635;BME280;8936;49.010;12.120;2023-06-14T01:41:50;97454.28;;;23.12;45.98
17635;BME280;8936;49.010;12.120;2023-06-14T01:44:17;97445.34;;;23.11;45.64
17635;BME280;8936;49.010;12.120;2023-06-14T01:46:45;97455.72;;;23.06;46.03
17635;BME280;8936;49.010;12.120;2023-06-14T01:49:11;97455.13;;;22.97;45.92
17635;BME280;8936;49.010;12.120;2023-06-14T01:51:37;97450.25;;;22.87;46.11
17635;BME280;8936;49.010;12.120;2023-06-14T01:54:04;97456.38;;;22.52;46.45
17635;BME280;8936;49.010;12.120;2023-06-14T01:56:30;97458.75;;;21.95;47.18
17635;BME280;8936;49.010;12.120;2023-06-14T01:58:58;97455.84;;;21.48;48.16
17635;BME280;8936;49.010;12.120;2023-06-14T02:01:25;97452.72;;;21.74;47.86
17635;BME280;8936;49.010;12.120;2023-06-14T02:03:51;97460.69;;;21.94;47.21
17635;BME280;8936;49.010;12.120;2023-06-14T02:06:18;97458.09;;;22.29;47.12
17635;BME280;8936;49.010;12.120;2023-06-14T02:08:45;97458.81;;;22.42;46.97
17635;BME280;8936;49.010;12.120;2023-06-14T02:11:11;97451.78;;;22.56;46.47
17635;BME280;8936;49.010;12.120;2023-06-14T02:13:38;97454.00;;;22.51;46.66
17635;BME280;8936;49.010;12.120;2023-06-14T02:16:05;97453.28;;;22.54;46.60
17635;BME280;8936;49.010;12.120;2023-06-14T02:18:32;97456.09;;;22.26;46.66
17635;BME280;8936;49.010;12.120;2023-06-14T02:20:58;97448.97;;;21.78;47.46
17635;BME280;8936;49.010;12.120;2023-06-14T02:23:24;97447.84;;;21.39;48.09
17635;BME280;8936;49.010;12.120;2023-06-14T02:25:51;97452.63;;;21.30;48.40
17635;BME280;8936;49.010;12.120;2023-06-14T02:28:17;97456.31;;;21.10;48.90
17635;BME280;8936;49.010;12.120;2023-06-14T02:30:44;97456.94;;;21.31;48.80
17635;BME280;8936;49.010;12.120;2023-06-14T02:33:11;97467.03;;;21.07;49.17
17635;BME280;8936;49.010;12.120;2023-06-14T02:35:38;97464.09;;;21.12;49.22
17635;BME280;8936;49.010;12.120;2023-06-14T02:38:04;97466.94;;;20.79;49.77
17635;BME280;8936;49.010;12.120;2023-06-14T02:40:31;97469.84;;;20.74;50.27
17635;BME280;8936;49.010;12.120;2023-06-14T02:42:57;97477.31;;;20.08;50.97
17635;BME280;8936;49.010;12.120;2023-06-14T02:45:23;97470.53;;;19.81;51.59
17635;BME280;8936;49.010;12.120;2023-06-14T02:47:50;97477.94;;;19.30;52.95
17635;BME280;8936;49.010;12.120;2023-06-14T02:50:17;97471.53;;;20.09;52.11
17635;BME280;8936;49.010;12.120;2023-06-14T02:52:46;97475.59;;;19.70;52.25
17635;BME280;8936;49.010;12.120;2023-06-14T02:55:13;97469.97;;;20.08;51.73
17635;BME280;8936;49.010;12.120;2023-06-14T02:57:39;97479.16;;;19.83;52.19
17635;BME280;8936;49.010;12.120;2023-06-14T03:00:06;97470.88;;;20.57;51.31
17635;BME280;8936;49.010;12.120;2023-06-14T03:02:34;97468.94;;;20.45;51.45
17635;BME280;8936;49.010;12.120;2023-06-14T03:05:01;97469.53;;;20.63;50.96
17635;BME280;8936;49.010;12.120;2023-06-14T03:07:29;97467.22;;;20.41;51.13
17635;BME280;8936;49.010;12.120;2023-06-14T03:09:56;97473.22;;;20.59;51.11
17635;BME280;8936;49.010;12.120;2023-06-14T03:12:22;97470.31;;;20.64;51.17
17635;BME280;8936;49.010;12.120;2023-06-14T03:14:49;97468.94;;;21.06;50.39
17635;BME280;8936;49.010;12.120;2023-06-14T03:17:16;97473.63;;;21.45;49.66
17635;BME280;8936;49.010;12.120;2023-06-14T03:19:44;97474.19;;;21.79;49.08
17635;BME280;8936;49.010;12.120;2023-06-14T03:22:11;97479.63;;;21.91;48.77
17635;BME280;8936;49.010;12.120;2023-06-14T03:24:39;97480.72;;;22.02;48.60
17635;BME280;8936;49.010;12.120;2023-06-14T03:27:06;97475.91;;;22.11;48.28
17635;BME280;8936;49.010;12.120;2023-06-14T03:29:35;97477.22;;;22.17;48.04
17635;BME280;8936;49.010;12.120;2023-06-14T03:32:01;97485.75;;;22.16;48.42
17635;BME280;8936;49.010;12.120;2023-06-14T03:34:28;97488.16;;;22.05;48.52
17635;BME280;8936;49.010;12.120;2023-06-14T03:36:54;97494.34;;;21.90;48.93
17635;BME280;8936;49.010;12.120;2023-06-14T03:39:21;97486.19;;;21.90;48.79
17635;BME280;8936;49.010;12.120;2023-06-14T03:41:48;97490.25;;;21.96;48.75
17635;BME280;8936;49.010;12.120;2023-06-14T03:44:15;97482.78;;;21.93;48.89
17635;BME280;8936;49.010;12.120;2023-06-14T03:46:43;97485.91;;;21.67;49.42
17635;BME280;8936;49.010;12.120;2023-06-14T03:49:10;97494.50;;;21.41;49.88
17635;BME280;8936;49.010;12.120;2023-06-14T03:51:38;97497.44;;;21.36;49.99
17635;BME280;8936;49.010;12.120;2023-06-14T03:54:05;97500.28;;;21.16;50.17
17635;BME280;8936;49.010;12.120;2023-06-14T03:56:32;97502.22;;;20.79;50.85
17635;BME280;8936;49.010;12.120;2023-06-14T03:59:00;97513.47;;;20.57;51.34
17635;BME280;8936;49.010;12.120;2023-06-14T04:01:26;97512.22;;;20.42;52.09
17635;BME280;8936;49.010;12.120;2023-06-14T04:03:54;97507.75;;;20.82;51.20
17635;BME280;8936;49.010;12.120;2023-06-14T04:06:20;97515.97;;;20.86;51.13
17635;BME280;8936;49.010;12.120;2023-06-14T04:08:47;97516.31;;;21.33;50.46
17635;BME280;8936;49.010;12.120;2023-06-14T04:11:14;97526.50;;;21.48;50.05
17635;BME280;8936;49.010;12.120;2023-06-14T04:13:41;97513.44;;;21.66;49.89
17635;BME280;8936;49.010;12.120;2023-06-14T04:16:08;97519.38;;;21.43;50.15
17635;BME280;8936;49.010;12.120;2023-06-14T04:18:35;97522.97;;;21.60;49.83
17635;BME280;8936;49.010;12.120;2023-06-14T04:21:01;97519.91;;;21.61;49.94
17635;BME280;8936;49.010;12.120;2023-06-14T04:23:27;97521.88;;;21.76;49.54
17635;BME280;8936;49.010;12.120;2023-06-14T04:25:54;97524.03;;;21.83;49.47
17635;BME280;8936;49.010;12.120;2023-06-14T04:28:27;97524.84;;;21.07;50.79
17635;BME280;8936;49.010;12.120;2023-06-14T04:30:53;97523.47;;;21.01;51.15
17635;BME280;8936;49.010;12.120;2023-06-14T04:33:21;97536.56;;;20.63;52.08
17635;BME280;8936;49.010;12.120;2023-06-14T04:35:48;97525.13;;;20.45;52.83
17635;BME280;8936;49.010;12.120;2023-06-14T04:38:18;97537.66;;;19.96;53.77
17635;BME280;8936;49.010;12.120;2023-06-14T04:40:49;97529.84;;;20.15;53.38
17635;BME280;8936;49.010;12.120;2023-06-14T04:43:18;97535.84;;;20.41;53.03
17635;BME280;8936;49.010;12.120;2023-06-14T04:45:50;97542.31;;;20.61;52.94
17635;BME280;8936;49.010;12.120;2023-06-14T04:48:16;97537.25;;;20.84;52.34
17635;BME280;8936;49.010;12.120;2023-06-14T04:50:46;97533.66;;;21.04;51.75
17635;BME280;8936;49.010;12.120;2023-06-14T04:53:13;97543.03;;;20.70;52.37
17635;BME280;8936;49.010;12.120;2023-06-14T04:55:39;97544.41;;;19.90;54.26
17635;BME280;8936;49.010;12.120;2023-06-14T04:58:10;97543.75;;;19.93;54.78
17635;BME280;8936;49.010;12.120;2023-06-14T05:00:38;97544.25;;;19.74;55.58
17635;BME280;8936;49.010;12.120;2023-06-14T05:03:04;97545.34;;;19.94;55.69
17635;BME280;8936;49.010;12.120;2023-06-14T05:05:30;97547.44;;;20.30;54.46
17635;BME280;8936;49.010;12.120;2023-06-14T05:07:58;97544.19;;;20.16;54.80
17635;BME280;8936;49.010;12.120;2023-06-14T05:10:24;97550.25;;;20.33;54.76
17635;BME280;8936;49.010;12.120;2023-06-14T05:12:51;97536.56;;;20.75;53.76
17635;BME280;8936;49.010;12.120;2023-06-14T05:15:17;97542.22;;;20.82;53.39
17635;BME280;8936;49.010;12.120;2023-06-14T05:17:45;97548.22;;;20.87;53.42
17635;BME280;8936;49.010;12.120;2023-06-14T05:20:15;97559.72;;;20.27;54.99
17635;BME280;8936;49.010;12.120;2023-06-14T05:22:42;97546.19;;;20.27;55.31
17635;BME280;8936;49.010;12.120;2023-06-14T05:25:09;97544.72;;;20.87;53.78
17635;BME280;8936;49.010;12.120;2023-06-14T05:27:36;97554.66;;;20.71;54.31
17635;BME280;8936;49.010;12.120;2023-06-14T05:30:02;97559.84;;;20.64;54.99
17635;BME280;8936;49.010;12.120;2023-06-14T05:32:29;97559.19;;;20.79;55.30
17635;BME280;8936;49.010;12.120;2023-06-14T05:34:56;97560.88;;;20.83;55.33
17635;BME280;8936;49.010;12.120;2023-06-14T05:37:22;97551.63;;;20.84;55.50
17635;BME280;8936;49.010;12.120;2023-06-14T05:39:49;97556.06;;;21.25;54.18
17635;BME280;8936;49.010;12.120;2023-06-14T05:42:16;97550.19;;;21.11;55.03
17635;BME280;8936;49.010;12.120;2023-06-14T05:44:43;97556.06;;;21.37;54.02
17635;BME280;8936;49.010;12.120;2023-06-14T05:47:09;97559.22;;;21.27;54.83
17635;BME280;8936;49.010;12.120;2023-06-14T05:49:35;97567.13;;;21.32;54.20
17635;BME280;8936;49.010;12.120;2023-06-14T05:52:02;97567.44;;;21.67;53.47
17635;BME280;8936;49.010;12.120;2023-06-14T05:54:28;97565.53;;;21.56;53.67
17635;BME280;8936;49.010;12.120;2023-06-14T05:56:54;97573.66;;;21.68;53.54
17635;BME280;8936;49.010;12.120;2023-06-14T05:59:22;97571.81;;;21.84;53.25
17635;BME280;8936;49.010;12.120;2023-06-14T06:01:48;97571.03;;;21.83;52.79
17635;BME280;8936;49.010;12.120;2023-06-14T06:04:15;97574.19;;;21.85;53.38
17635;BME280;8936;49.010;12.120;2023-06-14T06:06:41;97568.41;;;21.87;53.15
17635;BME280;8936;49.010;12.120;2023-06-14T06:09:07;97566.75;;;22.38;52.25
17635;BME280;8936;49.010;12.120;2023-06-14T06:11:34;97562.81;;;22.79;51.33
17635;BME280;8936;49.010;12.120;2023-06-14T06:14:00;97565.38;;;22.87;51.44
17635;BME280;8936;49.010;12.120;2023-06-14T06:16:28;97571.44;;;22.81;51.26
17635;BME280;8936;49.010;12.120;2023-06-14T06:18:54;97563.22;;;22.49;51.81
17635;BME280;8936;49.010;12.120;2023-06-14T06:21:20;97569.16;;;22.83;51.19
17635;BME280;8936;49.010;12.120;2023-06-14T06:23:47;97573.03;;;22.54;51.65
17635;BME280;8936;49.010;12.120;2023-06-14T06:26:13;97579.34;;;22.42;52.00
17635;BME280;8936;49.010;12.120;2023-06-14T06:28:39;97583.56;;;22.40;52.01
17635;BME280;8936;49.010;12.120;2023-06-14T06:31:06;97592.63;;;22.59;52.02
17635;BME280;8936;49.010;12.120;2023-06-14T06:33:33;97584.41;;;22.72;51.70
17635;BME280;8936;49.010;12.120;2023-06-14T06:36:02;97591.19;;;22.78;51.80
17635;BME280;8936;49.010;12.120;2023-06-14T06:38:28;97594.91;;;23.01;51.29
17635;BME280;8936;49.010;12.120;2023-06-14T06:40:55;97591.25;;;23.59;50.66
17635;BME280;8936;49.010;12.120;2023-06-14T06:43:21;97588.34;;;23.68;50.14
17635;BME280;8936;49.010;12.120;2023-06-14T06:45:48;97595.69;;;23.83;50.27
17635;BME280;8936;49.010;12.120;2023-06-14T06:48:14;97598.38;;;23.64;50.39
17635;BME280;8936;49.010;12.120;2023-06-14T06:50:43;97591.97;;;23.56;50.19
17635;BME280;8936;49.010;12.120;2023-06-14T06:53:09;97597.50;;;23.60;50.55
17635;BME280;8936;49.010;12.120;2023-06-14T06:55:35;97597.88;;;23.27;50.13
17635;BME280;8936;49.010;12.120;2023-06-14T06:58:02;97597.94;;;23.31;49.86
17635;BME280;8936;49.010;12.120;2023-06-14T07:00:30;97599.06;;;23.77;50.16
17635;BME280;8936;49.010;12.120;2023-06-14T07:02:56;97601.50;;;24.16;49.50
17635;BME280;8936;49.010;12.120;2023-06-14T07:05:23;97605.47;;;24.03;49.47
17635;BME280;8936;49.010;12.120;2023-06-14T07:07:50;97605.94;;;24.25;48.96
17635;BME280;8936;49.010;12.120;2023-06-14T07:10:17;97608.38;;;24.10;48.58
17635;BME280;8936;49.010;12.120;2023-06-14T07:12:43;97605.66;;;23.76;48.95
17635;BME280;8936;49.010;12.120;2023-06-14T07:15:10;97605.53;;;23.88;49.75
17635;BME280;8936;49.010;12.120;2023-06-14T07:17:36;97609.81;;;24.24;49.20
17635;BME280;8936;49.010;12.120;2023-06-14T07:20:03;97618.22;;;24.53;48.76
17635;BME280;8936;49.010;12.120;2023-06-14T07:22:33;97618.94;;;24.50;48.05
17635;BME280;8936;49.010;12.120;2023-06-14T07:25:01;97617.03;;;23.62;44.71
17635;BME280;8936;49.010;12.120;2023-06-14T07:27:28;97617.50;;;23.48;45.98
17635;BME280;8936;49.010;12.120;2023-06-14T07:29:54;97618.78;;;22.92;44.88
17635;BME280;8936;49.010;12.120;2023-06-14T07:32:20;97628.66;;;22.69;46.44
17635;BME280;8936;49.010;12.120;2023-06-14T07:34:47;97624.69;;;23.56;46.94
17635;BME280;8936;49.010;12.120;2023-06-14T07:37:13;97627.69;;;24.21;46.12
17635;BME280;8936;49.010;12.120;2023-06-14T07:39:39;97626.59;;;23.72;45.14
17635;BME280;8936;49.010;12.120;2023-06-14T07:42:07;97635.06;;;24.01;45.89
17635;BME280;8936;49.010;12.120;2023-06-14T07:44:34;97634.53;;;24.50;45.42
17635;BME280;8936;49.010;12.120;2023-06-14T07:47:01;97635.44;;;24.57;44.09
17635;BME280;8936;49.010;12.120;2023-06-14T07:49:27;97632.66;;;23.34;45.24
17635;BME280;8936;49.010;12.120;2023-06-14T07:51:53;97640.72;;;23.42;45.50
17635;BME280;8936;49.010;12.120;2023-06-14T07:54:20;97633.47;;;23.19;46.16
17635;BME280;8936;49.010;12.120;2023-06-14T07:56:49;97637.56;;;22.81;46.09
17635;BME280;8936;49.010;12.120;2023-06-14T07:59:17;97639.16;;;22.54;46.06
17635;BME280;8936;49.010;12.120;2023-06-14T08:01:44;97637.41;;;21.94;47.46
17635;BME280;8936;49.010;12.120;2023-06-14T08:04:12;97648.06;;;21.87;48.03
17635;BME280;8936;49.010;12.120;2023-06-14T08:06:38;97636.38;;;21.87;47.56
17635;BME280;8936;49.010;12.120;2023-06-14T08:09:05;97646.06;;;22.24;47.52
17635;BME280;8936;49.010;12.120;2023-06-14T08:11:31;97640.16;;;22.50;47.52
17635;BME280;8936;49.010;12.120;2023-06-14T08:13:58;97641.06;;;22.54;47.56
17635;BME280;8936;49.010;12.120;2023-06-14T08:16:25;97643.94;;;22.45;47.85
17635;BME280;8936;49.010;12.120;2023-06-14T08:18:52;97647.06;;;22.59;47.98
17635;BME280;8936;49.010;12.120;2023-06-14T08:21:18;97643.47;;;22.83;47.19
17635;BME280;8936;49.010;12.120;2023-06-14T08:23:44;97640.53;;;22.48;47.98
17635;BME280;8936;49.010;12.120;2023-06-14T08:26:11;97642.78;;;23.64;47.16
17635;BME280;8936;49.010;12.120;2023-06-14T08:28:37;97637.38;;;23.84;46.33
17635;BME280;8936;49.010;12.120;2023-06-14T08:31:04;97642.78;;;23.64;46.42
17635;BME280;8936;49.010;12.120;2023-06-14T08:33:32;97641.72;;;23.38;46.89
17635;BME280;8936;49.010;12.120;2023-06-14T08:35:59;97645.53;;;23.33;46.34
17635;BME280;8936;49.010;12.120;2023-06-14T08:38:26;97645.53;;;23.49;46.29
17635;BME280;8936;49.010;12.120;2023-06-14T08:40:52;97646.44;;;22.94;47.16
17635;BME280;8936;49.010;12.120;2023-06-14T08:43:18;97653.72;;;22.74;47.34
17635;BME280;8936;49.010;12.120;2023-06-14T08:45:45;97644.88;;;22.93;47.24
17635;BME280;8936;49.010;12.120;2023-06-14T08:48:13;97638.47;;;23.79;46.19
17635;BME280;8936;49.010;12.120;2023-06-14T08:50:43;97644.19;;;23.58;45.94
17635;BME280;8936;49.010;12.120;2023-06-14T08:53:11;97649.84;;;23.50;45.76
17635;BME280;8936;49.010;12.120;2023-06-14T08:55:44;97652.25;;;23.71;45.51
17635;BME280;8936;49.010;12.120;2023-06-14T08:58:12;97656.56;;;23.25;45.51
17635;BME280;8936;49.010;12.120;2023-06-14T09:00:40;97650.97;;;23.18;45.69
17635;BME280;8936;49.010;12.120;2023-06-14T09:03:06;97659.03;;;22.98;46.20
17635;BME280;8936;49.010;12.120;2023-06-14T09:05:38;97654.19;;;22.64;46.77
17635;BME280;8936;49.010;12.120;2023-06-14T09:08:05;97660.97;;;22.98;46.54
17635;BME280;8936;49.010;12.120;2023-06-14T09:10:32;97659.13;;;23.64;46.32
17635;BME280;8936;49.010;12.120;2023-06-14T09:13:00;97657.56;;;24.33;45.46
17635;BME280;8936;49.010;12.120;2023-06-14T09:15:27;97666.69;;;24.79;44.60
17635;BME280;8936;49.010;12.120;2023-06-14T09:17:53;97671.09;;;24.84;44.60
17635;BME280;8936;49.010;12.120;2023-06-14T09:20:20;97674.19;;;25.24;43.98
17635;BME280;8936;49.010;12.120;2023-06-14T09:22:47;97663.47;;;25.38;43.92
17635;BME280;8936;49.010;12.120;2023-06-14T09:25:14;97671.66;;;24.35;43.72
17635;BME280;8936;49.010;12.120;2023-06-14T09:27:41;97673.03;;;23.75;44.63
17635;BME280;8936;49.010;12.120;2023-06-14T09:30:08;97660.81;;;23.22;45.58
17635;BME280;8936;49.010;12.120;2023-06-14T09:32:36;97671.97;;;23.33;45.19
17635;BME280;8936;49.010;12.120;2023-06-14T09:35:03;97664.50;;;23.30;45.64
17635;BME280;8936;49.010;12.120;2023-06-14T09:37:30;97672.63;;;23.92;45.47
17635;BME280;8936;49.010;12.120;2023-06-14T09:39:56;97661.44;;;24.51;44.71
17635;BME280;8936;49.010;12.120;2023-06-14T09:42:24;97672.44;;;24.36;44.45
17635;BME280;8936;49.010;12.120;2023-06-14T09:44:54;97667.56;;;24.26;45.09
17635;BME280;8936;49.010;12.120;2023-06-14T09:47:20;97673.03;;;24.10;45.10
17635;BME280;8936;49.010;12.120;2023-06-14T09:49:47;97669.81;;;24.04;45.41
17635;BME280;8936;49.010;12.120;2023-06-14T09:52:14;97670.47;;;24.17;45.18
17635;BME280;8936;49.010;12.120;2023-06-14T09:54:41;97656.44;;;24.53;44.92
17635;BME280;8936;49.010;12.120;2023-06-14T09:57:08;97659.31;;;24.41;44.91
17635;BME280;8936;49.010;12.120;2023-06-14T09:59:36;97662.47;;;24.24;44.71
17635;BME280;8936;49.010;12.120;2023-06-14T10:02:10;97668.91;;;24.16;44.85
17635;BME280;8936;49.010;12.120;2023-06-14T10:04:37;97670.38;;;24.48;44.91
17635;BME280;8936;49.010;12.120;2023-06-14T10:07:06;97672.53;;;24.78;44.76
17635;BME280;8936;49.010;12.120;2023-06-14T10:09:33;97676.19;;;24.85;44.05
17635;BME280;8936;49.010;12.120;2023-06-14T10:12:00;97658.44;;;24.76;44.24
17635;BME280;8936;49.010;12.120;2023-06-14T10:14:26;97669.28;;;24.72;44.54
17635;BME280;8936;49.010;12.120;2023-06-14T10:16:56;97668.84;;;24.12;44.82
17635;BME280;8936;49.010;12.120;2023-06-14T10:19:25;97663.94;;;23.87;45.46
17635;BME280;8936;49.010;12.120;2023-06-14T10:22:01;97670.56;;;24.21;45.09
17635;BME280;8936;49.010;12.120;2023-06-14T10:24:29;97660.13;;;24.07;45.19
17635;BME280;8936;49.010;12.120;2023-06-14T10:26:57;97670.44;;;23.98;45.56
17635;BME280;8936;49.010;12.120;2023-06-14T10:29:23;97665.03;;;24.17;44.83
17635;BME280;8936;49.010;12.120;2023-06-14T10:31:53;97670.25;;;24.06;45.00
17635;BME280;8936;49.010;12.120;2023-06-14T10:34:22;97662.03;;;24.60;44.67
17635;BME280;8936;49.010;12.120;2023-06-14T10:36:59;97661.59;;;24.97;44.53
17635;BME280;8936;49.010;12.120;2023-06-14T10:39:26;97656.44;;;24.53;44.33
17635;BME280;8936;49.010;12.120;2023-06-14T10:41:53;97670.78;;;24.89;44.10
17635;BME280;8936;49.010;12.120;2023-06-14T10:44:38;97664.56;;;25.11;43.94
17635;BME280;8936;49.010;12.120;2023-06-14T10:47:22;97656.22;;;24.81;43.34
17635;BME280;8936;49.010;12.120;2023-06-14T10:49:51;97652.84;;;24.68;44.20
17635;BME280;8936;49.010;12.120;2023-06-14T10:52:20;97656.25;;;25.04;43.78
17635;BME280;8936;49.010;12.120;2023-06-14T10:57:39;97648.66;;;24.94;42.45
17635;BME280;8936;49.010;12.120;2023-06-14T11:00:07;97651.69;;;24.89;43.21
17635;BME280;8936;49.010;12.120;2023-06-14T11:05:25;97644.72;;;24.34;44.12
17635;BME280;8936;49.010;12.120;2023-06-14T11:07:57;97639.69;;;24.36;44.02
17635;BME280;8936;49.010;12.120;2023-06-14T11:10:26;97647.31;;;24.46;44.16
17635;BME280;8936;49.010;12.120;2023-06-14T11:12:59;97647.22;;;24.42;44.39
17635;BME280;8936;49.010;12.120;2023-06-14T11:15:29;97635.34;;;24.92;43.98
17635;BME280;8936;49.010;12.120;2023-06-14T11:17:56;97631.06;;;25.14;43.32
17635;BME280;8936;49.010;12.120;2023-06-14T11:20:26;97641.69;;;24.77;42.89
17635;BME280;8936;49.010;12.120;2023-06-14T11:22:52;97638.88;;;24.73;43.51
17635;BME280;8936;49.010;12.120;2023-06-14T11:25:19;97641.78;;;24.61;43.49
17635;BME280;8936;49.010;12.120;2023-06-14T11:27:45;97639.91;;;24.65;43.39
17635;BME280;8936;49.010;12.120;2023-06-14T11:30:13;97630.91;;;24.65;43.07
17635;BME280;8936;49.010;12.120;2023-06-14T11:32:40;97640.63;;;24.82;43.06
17635;BME280;8936;49.010;12.120;2023-06-14T11:35:07;97641.19;;;24.71;43.75
17635;BME280;8936;49.010;12.120;2023-06-14T11:37:36;97640.47;;;24.75;43.53
17635;BME280;8936;49.010;12.120;2023-06-14T11:40:04;97641.75;;;25.00;42.74
17635;BME280;8936;49.010;12.120;2023-06-14T11:42:34;97638.69;;;25.05;42.04
17635;BME280;8936;49.010;12.120;2023-06-14T11:45:01;97632.69;;;25.18;42.39
17635;BME280;8936;49.010;12.120;2023-06-14T11:47:31;97630.88;;;25.26;42.78
17635;BME280;8936;49.010;12.120;2023-06-14T11:49:58;97626.56;;;25.25;43.30
17635;BME280;8936;49.010;12.120;2023-06-14T11:52:24;97618.53;;;25.13;43.50
17635;BME280;8936;49.010;12.120;2023-06-14T11:54:52;97621.22;;;24.87;44.11
17635;BME280;8936;49.010;12.120;2023-06-14T11:57:19;97621.75;;;24.77;44.17
17635;BME280;8936;49.010;12.120;2023-06-14T11:59:45;97628.41;;;24.76;44.41
17635;BME280;8936;49.010;12.120;2023-06-14T12:02:13;97632.56;;;24.69;44.47
17635;BME280;8936;49.010;12.120;2023-06-14T12:04:40;97626.09;;;24.58;44.09
17635;BME280;8936;49.010;12.120;2023-06-14T12:07:10;97630.41;;;24.79;44.63
17635;BME280;8936;49.010;12.120;2023-06-14T12:09:40;97629.06;;;24.50;44.60
17635;BME280;8936;49.010;12.120;2023-06-14T12:12:11;97623.13;;;24.25;44.68
17635;BME280;8936;49.010;12.120;2023-06-14T12:14:39;97631.06;;;24.34;44.24
17635;BME280;8936;49.010;12.120;2023-06-14T12:17:07;97632.16;;;24.48;44.64
17635;BME280;8936;49.010;12.120;2023-06-14T12:19:33;97627.81;;;24.66;43.37
17635;BME280;8936;49.010;12.120;2023-06-14T12:22:07;97639.50;;;24.44;44.12
17635;BME280;8936;49.010;12.120;2023-06-14T12:24:35;97625.06;;;24.66;44.17
17635;BME280;8936;49.010;12.120;2023-06-14T12:27:01;97637.69;;;24.52;44.57
17635;BME280;8936;49.010;12.120;2023-06-14T12:29:30;97636.34;;;24.23;44.76
17635;BME280;8936;49.010;12.120;2023-06-14T12:31:56;97639.81;;;24.04;44.84
17635;BME280;8936;49.010;12.120;2023-06-14T12:34:23;97638.41;;;23.95;45.34
17635;BME280;8936;49.010;12.120;2023-06-14T12:36:49;97635.31;;;23.96;45.38
17635;BME280;8936;49.010;12.120;2023-06-14T12:39:16;97634.31;;;24.39;45.07
17635;BME280;8936;49.010;12.120;2023-06-14T12:41:43;97630.44;;;24.40;44.54
17635;BME280;8936;49.010;12.120;2023-06-14T12:44:09;97629.38;;;24.45;44.81
17635;BME280;8936;49.010;12.120;2023-06-14T12:46:37;97631.41;;;24.51;44.38
17635;BME280;8936;49.010;12.120;2023-06-14T12:49:04;97637.34;;;24.76;44.19
17635;BME280;8936;49.010;12.120;2023-06-14T12:51:31;97633.00;;;24.91;43.83
17635;BME280;8936;49.010;12.120;2023-06-14T12:53:58;97638.56;;;24.98;43.52
17635;BME280;8936;49.010;12.120;2023-06-14T12:56:24;97639.31;;;24.76;43.49
17635;BME280;8936;49.010;12.120;2023-06-14T12:58:51;97641.97;;;24.72;43.88
17635;BME280;8936;49.010;12.120;2023-06-14T13:01:17;97635.41;;;24.54;43.77
17635;BME280;8936;49.010;12.120;2023-06-14T13:03:45;97630.28;;;24.52;43.92
17635;BME280;8936;49.010;12.120;2023-06-14T13:06:12;97639.25;;;24.53;44.01